Time;durP1;ratioP1;P1;durP2;ratioP2;P2;SDS_P1;SDS_P2;PMS_P1;PMS_P2;Temp;Humidity;BMP_temperature;BMP_pressure;BME280_temperature;BME280_humidity;BME280_pressure;Samples;Min_cycle;Max_cycle;Signal;HPM_P1;HPM_P2
2022/08/31 00:16:09;;;;;;;;;;;;;;;20.18;86.50;99446.72;4992913;28;676;-60
2022/08/31 00:18:40;;;;;;;;;;;;;;;20.78;82.45;99444.88;4992696;28;877;-60
2022/08/31 00:21:06;;;;;;;;;;;;;;;21.25;79.00;99431.16;4992884;28;814;-60
2022/08/31 00:23:32;;;;;;;;;;;;;;;21.55;76.82;99434.75;4992648;28;886;-60
2022/08/31 00:25:59;;;;;;;;;;;;;;;21.70;75.58;99435.50;4992557;28;1914;-60
2022/08/31 00:28:25;;;;;;;;;;;;;;;21.79;75.20;99440.25;4992645;28;877;-60
2022/08/31 00:30:52;;;;;;;;;;;;;;;21.82;74.22;99440.00;4992631;28;815;-60
2022/08/31 00:33:19;;;;;;;;;;;;;;;21.88;73.44;99428.84;4992579;28;842;-60
2022/08/31 00:35:46;;;;;;;;;;;;;;;21.93;73.21;99436.59;4992558;28;1051;-59
2022/08/31 00:38:15;;;;;;;;;;;;;;;21.99;72.34;99425.41;4992690;28;783;-59
2022/08/31 00:40:43;;;;;;;;;;;;;;;22.09;71.86;99434.50;4992284;28;807;-59
2022/08/31 00:46:25;;;;;;;;;;;;;;;22.07;71.71;99420.94;4992401;28;1922;-60
2022/08/31 00:48:57;;;;;;;;;;;;;;;22.08;71.25;99411.22;4992356;28;831;-60
2022/08/31 00:51:28;;;;;;;;;;;;;;;22.09;71.32;99409.97;4992340;28;791;-60
2022/08/31 00:53:56;;;;;;;;;;;;;;;22.11;70.88;99413.06;4992332;28;905;-60
2022/08/31 00:56:23;;;;;;;;;;;;;;;22.16;70.78;99406.72;4992232;28;870;-60
2022/08/31 00:58:59;;;;;;;;;;;;;;;22.18;70.66;99406.22;4992194;28;807;-60
2022/08/31 01:01:26;;;;;;;;;;;;;;;22.21;70.52;99416.50;4992243;28;854;-60
2022/08/31 01:03:53;;;;;;;;;;;;;;;22.16;70.63;99423.59;4992117;28;890;-60
2022/08/31 01:06:21;;;;;;;;;;;;;;;22.14;71.11;99428.94;4992204;28;2013;-60
2022/08/31 01:08:49;;;;;;;;;;;;;;;22.07;71.15;99442.69;4992283;28;783;-60
2022/08/31 01:11:17;;;;;;;;;;;;;;;22.00;71.63;99458.69;4993225;28;1228;-60
2022/08/31 01:13:52;;;;;;;;;;;;;;;21.93;71.62;99461.91;4996129;28;819;-60
2022/08/31 01:16:23;;;;;;;;;;;;;;;21.86;71.98;99461.56;4996445;28;807;-60
2022/08/31 01:18:58;;;;;;;;;;;;;;;21.84;72.23;99459.22;4996073;28;822;-60
2022/08/31 01:21:28;;;;;;;;;;;;;;;21.90;72.06;99462.13;4996036;28;835;-60
2022/08/31 01:23:57;;;;;;;;;;;;;;;21.96;71.68;99463.00;4996445;28;760;-60
2022/08/31 01:26:24;;;;;;;;;;;;;;;22.03;71.23;99454.13;4995877;28;1978;-60
2022/08/31 01:28:57;;;;;;;;;;;;;;;22.09;70.92;99452.16;4996281;28;870;-60
2022/08/31 01:31:34;;;;;;;;;;;;;;;22.11;70.21;99449.63;4995897;28;819;-60
2022/08/31 01:34:01;;;;;;;;;;;;;;;22.16;70.13;99460.19;4995782;28;910;-60
2022/08/31 01:36:28;;;;;;;;;;;;;;;22.17;70.31;99467.38;4995745;28;787;-60
2022/08/31 01:38:55;;;;;;;;;;;;;;;22.17;70.35;99480.69;4995765;28;815;-60
2022/08/31 01:41:21;;;;;;;;;;;;;;;22.05;70.46;99482.56;4995472;28;851;-60
2022/08/31 01:43:47;;;;;;;;;;;;;;;21.67;71.47;99489.91;4995654;28;889;-60
2022/08/31 01:46:16;;;;;;;;;;;;;;;21.26;72.96;99495.31;4995491;28;1886;-60
2022/08/31 01:48:46;;;;;;;;;;;;;;;20.94;74.83;99488.59;4995571;28;835;-60
2022/08/31 01:51:14;;;;;;;;;;;;;;;20.76;76.00;99478.28;4995781;28;831;-60
2022/08/31 01:53:41;;;;;;;;;;;;;;;20.71;76.66;99473.34;4995586;28;799;-60
2022/08/31 01:56:14;;;;;;;;;;;;;;;20.68;77.17;99463.84;4994334;28;1193;-60
2022/08/31 01:58:40;;;;;;;;;;;;;;;20.90;76.75;99445.88;4995333;28;885;-60
2022/08/31 02:01:09;;;;;;;;;;;;;;;21.47;74.41;99439.22;4995341;28;799;-60
2022/08/31 02:03:40;;;;;;;;;;;;;;;21.92;72.06;99437.09;4995223;28;876;-60
2022/08/31 02:06:21;;;;;;;;;;;;;;;22.15;70.89;99438.94;4995213;28;1953;-60
2022/08/31 02:08:48;;;;;;;;;;;;;;;22.26;70.10;99437.59;4994999;28;1111;-60
2022/08/31 02:11:15;;;;;;;;;;;;;;;22.28;70.05;99432.25;4995123;28;1286;-59
2022/08/31 02:25:52;;;;;;;;;;;;;;;22.20;69.49;99429.78;4995303;28;1906;-60
2022/08/31 02:28:18;;;;;;;;;;;;;;;22.13;70.10;99435.09;4995069;28;839;-60
2022/08/31 02:30:44;;;;;;;;;;;;;;;22.08;70.15;99430.13;4994885;28;886;-60
2022/08/31 02:33:11;;;;;;;;;;;;;;;22.07;70.07;99420.94;4994694;28;843;-60
2022/08/31 02:35:37;;;;;;;;;;;;;;;22.04;70.10;99413.47;4994670;28;854;-60
2022/08/31 02:38:05;;;;;;;;;;;;;;;22.01;70.30;99414.44;4994604;28;847;-60
2022/08/31 02:40:39;;;;;;;;;;;;;;;21.92;70.77;99415.34;4994490;28;897;-60
2022/08/31 02:43:31;;;;;;;;;;;;;;;21.84;71.09;99413.44;4994531;28;834;-60
2022/08/31 02:45:57;;;;;;;;;;;;;;;21.76;71.33;99413.06;4994493;28;1882;-60
2022/08/31 02:48:23;;;;;;;;;;;;;;;21.73;71.62;99412.03;4994427;28;811;-60
2022/08/31 02:51:07;;;;;;;;;;;;;;;21.64;72.04;99414.97;4994405;28;796;-61
2022/08/31 02:53:34;;;;;;;;;;;;;;;21.56;72.49;99422.25;4994267;28;900;-60
2022/08/31 02:56:00;;;;;;;;;;;;;;;21.46;72.87;99437.66;4994381;28;795;-60
2022/08/31 02:58:27;;;;;;;;;;;;;;;21.35;73.60;99450.25;4994253;28;830;-60
2022/08/31 03:00:54;;;;;;;;;;;;;;;21.24;74.03;99458.50;4994223;28;803;-60
2022/08/31 03:18:57;;;;;;;;;;;;;;;20.72;77.25;99461.66;4955234;29;642;-60
2022/08/31 03:21:35;;;;;;;;;;;;;;;20.71;77.39;99460.06;4955160;28;871;-60
2022/08/31 03:24:01;;;;;;;;;;;;;;;20.68;77.65;99460.28;4955051;28;866;-60
2022/08/31 03:26:28;;;;;;;;;;;;;;;20.65;77.81;99462.00;4954939;28;1915;-60
2022/08/31 03:28:57;;;;;;;;;;;;;;;20.65;77.94;99461.22;4955006;28;803;-60
2022/08/31 03:31:24;;;;;;;;;;;;;;;20.70;77.79;99461.34;4954994;28;914;-60
2022/08/31 03:33:52;;;;;;;;;;;;;;;20.79;77.55;99464.06;4954644;28;862;-60
2022/08/31 03:36:19;;;;;;;;;;;;;;;20.83;77.44;99458.28;4954261;28;863;-60
2022/08/31 03:38:45;;;;;;;;;;;;;;;20.85;77.11;99455.75;4954740;28;843;-60
2022/08/31 03:44:14;;;;;;;;;;;;;;;20.93;76.57;99454.13;4954813;29;724;-60
2022/08/31 03:46:43;;;;;;;;;;;;;;;21.04;76.32;99461.97;4955136;28;1938;-61
2022/08/31 03:49:11;;;;;;;;;;;;;;;21.15;75.70;99459.38;4955042;28;898;-60
2022/08/31 03:51:37;;;;;;;;;;;;;;;21.27;75.06;99459.56;4954835;28;787;-60
2022/08/31 03:54:04;;;;;;;;;;;;;;;21.25;75.00;99462.06;4954694;28;882;-60
2022/08/31 03:56:30;;;;;;;;;;;;;;;21.20;75.30;99471.97;4954956;28;859;-60
2022/08/31 03:58:56;;;;;;;;;;;;;;;21.15;75.34;99479.03;4955155;28;788;-60
2022/08/31 04:01:22;;;;;;;;;;;;;;;21.15;75.31;99479.03;4954365;28;847;-60
2022/08/31 04:03:49;;;;;;;;;;;;;;;21.16;75.22;99474.94;4954503;28;847;-60
2022/08/31 04:06:17;;;;;;;;;;;;;;;21.12;75.32;99476.41;4954403;28;1899;-60
2022/08/31 04:08:44;;;;;;;;;;;;;;;21.06;75.58;99484.75;4954169;28;827;-60
2022/08/31 04:23:49;;;;;;;;;;;;;;;21.01;76.15;99476.97;4992109;28;1345;-60
2022/08/31 04:26:18;;;;;;;;;;;;;;;21.04;75.87;99481.66;4993004;28;1946;-60
2022/08/31 04:28:44;;;;;;;;;;;;;;;21.12;75.68;99470.78;4992653;28;779;-60
2022/08/31 04:34:30;;;;;;;;;;;;;;;21.28;74.90;99477.97;4988912;28;1377;-60
2022/08/31 04:36:59;;;;;;;;;;;;;;;21.33;74.64;99480.88;4992377;28;889;-60
2022/08/31 04:39:26;;;;;;;;;;;;;;;21.37;74.50;99483.50;4992645;28;796;-60
2022/08/31 04:41:55;;;;;;;;;;;;;;;21.38;74.65;99488.66;4991117;28;1362;-60
2022/08/31 04:44:25;;;;;;;;;;;;;;;21.42;74.39;99480.03;4992424;28;878;-60
2022/08/31 04:46:52;;;;;;;;;;;;;;;21.46;74.36;99483.41;4991913;28;1882;-60
2022/08/31 04:49:19;;;;;;;;;;;;;;;21.47;74.33;99478.59;4992407;28;870;-60
2022/08/31 04:51:45;;;;;;;;;;;;;;;21.47;74.12;99476.56;4992254;28;802;-60
2022/08/31 04:54:14;;;;;;;;;;;;;;;21.46;74.17;99483.41;4992489;28;898;-60
2022/08/31 04:56:43;;;;;;;;;;;;;;;21.44;74.17;99482.34;4992346;28;1137;-60
2022/08/31 04:59:11;;;;;;;;;;;;;;;21.45;73.99;99479.06;4992840;28;826;-60
2022/08/31 05:01:39;;;;;;;;;;;;;;;21.49;73.97;99478.88;4992289;28;830;-60
2022/08/31 05:04:07;;;;;;;;;;;;;;;21.52;73.86;99477.91;4992260;28;869;-60
2022/08/31 05:06:36;;;;;;;;;;;;;;;21.54;73.63;99481.78;4992203;28;1914;-60
2022/08/31 05:09:07;;;;;;;;;;;;;;;21.58;73.61;99482.34;4992330;28;816;-60
2022/08/31 05:11:35;;;;;;;;;;;;;;;21.66;73.16;99477.13;4992545;28;873;-60
2022/08/31 05:14:03;;;;;;;;;;;;;;;21.80;72.65;99476.28;4992173;28;858;-60
2022/08/31 05:16:30;;;;;;;;;;;;;;;22.06;71.95;99477.69;4992046;28;803;-60
2022/08/31 05:18:57;;;;;;;;;;;;;;;22.34;70.96;99480.91;4992151;28;807;-60
2022/08/31 05:21:28;;;;;;;;;;;;;;;22.60;69.74;99478.97;4992003;28;799;-60
2022/08/31 05:23:56;;;;;;;;;;;;;;;22.82;68.67;99474.84;4992038;28;784;-59
2022/08/31 05:26:24;;;;;;;;;;;;;;;23.01;68.02;99473.28;4991885;28;1980;-60
2022/08/31 05:31:55;;;;;;;;;;;;;;;23.16;66.19;99480.88;4991977;28;640;-60
2022/08/31 05:34:22;;;;;;;;;;;;;;;23.24;65.69;99479.16;4991905;28;807;-60
2022/08/31 05:36:51;;;;;;;;;;;;;;;23.52;64.58;99481.47;4991765;28;839;-60
2022/08/31 05:39:18;;;;;;;;;;;;;;;23.84;63.66;99480.19;4991904;28;1001;-60
2022/08/31 05:41:47;;;;;;;;;;;;;;;24.09;62.57;99474.97;4991776;28;827;-59
2022/08/31 05:44:15;;;;;;;;;;;;;;;24.32;61.48;99487.13;4991906;28;851;-59
2022/08/31 05:46:51;;;;;;;;;;;;;;;24.55;60.94;99478.81;4991726;28;1887;-59
2022/08/31 05:49:17;;;;;;;;;;;;;;;24.71;60.19;99474.50;4991958;28;834;-59
2022/08/31 05:51:53;;;;;;;;;;;;;;;24.85;59.16;99476.34;4991811;28;853;-60
2022/08/31 05:54:19;;;;;;;;;;;;;;;25.00;58.28;99471.22;4991670;28;1222;-59
2022/08/31 06:02:52;;;;;;;;;;;;;;;25.42;56.08;99468.75;4995964;28;692;-60
2022/08/31 06:05:18;;;;;;;;;;;;;;;25.45;55.78;99477.00;4995310;28;1957;-60
2022/08/31 06:10:47;;;;;;;;;;;;;;;25.57;54.96;99477.75;4995506;28;1017;-59
2022/08/31 06:13:18;;;;;;;;;;;;;;;25.67;54.52;99478.28;4995088;28;918;-59
2022/08/31 06:15:47;;;;;;;;;;;;;;;25.86;54.30;99476.44;4995125;28;790;-60
2022/08/31 06:18:24;;;;;;;;;;;;;;;25.97;53.97;99477.75;4995005;28;866;-59
2022/08/31 06:23:56;;;;;;;;;;;;;;;26.11;53.20;99479.50;4993497;28;1464;-59
2022/08/31 06:26:23;;;;;;;;;;;;;;;26.17;52.53;99483.09;4994812;28;1918;-60
2022/08/31 06:28:58;;;;;;;;;;;;;;;26.16;52.85;99478.75;4994831;28;815;-60
2022/08/31 06:31:36;;;;;;;;;;;;;;;26.43;52.72;99482.00;4994750;28;839;-59
2022/08/31 06:34:06;;;;;;;;;;;;;;;26.96;51.45;99482.03;4994847;28;819;-60
2022/08/31 06:36:35;;;;;;;;;;;;;;;27.26;49.72;99473.63;4994525;28;890;-60
2022/08/31 06:39:02;;;;;;;;;;;;;;;27.49;48.92;99474.22;4994656;28;819;-60
2022/08/31 06:41:32;;;;;;;;;;;;;;;27.79;46.28;99477.03;4994633;28;851;-59
2022/08/31 06:44:00;;;;;;;;;;;;;;;27.96;45.72;99476.16;4994487;28;882;-60
2022/08/31 06:46:28;;;;;;;;;;;;;;;28.03;45.43;99467.78;4994491;28;1949;-59
2022/08/31 06:48:55;;;;;;;;;;;;;;;28.47;44.87;99465.75;4994454;28;823;-59
2022/08/31 06:51:25;;;;;;;;;;;;;;;28.89;43.77;99465.47;4994423;28;819;-59
2022/08/31 06:54:16;;;;;;;;;;;;;;;29.72;42.80;99470.44;4994352;28;882;-59
2022/08/31 06:56:43;;;;;;;;;;;;;;;29.98;41.48;99469.72;4994338;28;913;-59
2022/08/31 06:59:12;;;;;;;;;;;;;;;30.14;41.41;99467.88;4994191;28;852;-59
2022/08/31 07:01:42;;;;;;;;;;;;;;;30.66;41.02;99477.75;4994684;28;854;-59
2022/08/31 07:04:10;;;;;;;;;;;;;;;30.87;40.33;99488.44;4992754;28;1437;-59
2022/08/31 07:18:53;;;;;;;;;;;;;;;31.56;39.52;99471.28;4994306;28;720;-59
2022/08/31 07:21:23;;;;;;;;;;;;;;;31.84;37.78;99474.22;4993851;28;792;-59
2022/08/31 07:23:52;;;;;;;;;;;;;;;31.95;37.20;99476.00;4993883;28;1277;-59
2022/08/31 07:26:29;;;;;;;;;;;;;;;31.98;36.72;99483.47;4993714;28;1910;-59
2022/08/31 07:29:06;;;;;;;;;;;;;;;31.72;37.67;99479.44;4993858;28;1122;-59
2022/08/31 07:31:43;;;;;;;;;;;;;;;31.80;37.28;99484.47;4992285;28;1394;-59
2022/08/31 07:34:10;;;;;;;;;;;;;;;31.87;37.02;99486.59;4993503;28;894;-59
2022/08/31 07:42:08;;;;;;;;;;;;;;;32.30;36.31;99488.81;4993730;28;851;-59
2022/08/31 07:45:20;;;;;;;;;;;;;;;32.60;35.31;99484.63;4993392;28;1890;-59
2022/08/31 07:47:46;;;;;;;;;;;;;;;32.58;35.10;99478.69;4993443;28;870;-59
2022/08/31 07:50:17;;;;;;;;;;;;;;;32.77;35.67;99471.94;4993320;28;847;-59
2022/08/31 07:55:59;;;;;;;;;;;;;;;33.04;34.76;99478.13;4990194;28;1092;-59
2022/08/31 07:58:26;;;;;;;;;;;;;;;33.14;34.67;99461.97;4993220;28;918;-59
2022/08/31 08:04:00;;;;;;;;;;;;;;;33.80;33.65;99451.72;4993031;28;645;-59
2022/08/31 08:09:30;;;;;;;;;;;;;;;33.28;34.09;99456.81;4993033;28;629;-59
2022/08/31 08:12:05;;;;;;;;;;;;;;;33.65;32.91;99451.69;4991525;28;1343;-59
2022/08/31 08:14:33;;;;;;;;;;;;;;;33.40;33.97;99442.91;4992825;28;854;-59
2022/08/31 08:17:00;;;;;;;;;;;;;;;33.63;33.73;99440.03;4992969;28;858;-59
2022/08/31 08:19:26;;;;;;;;;;;;;;;33.58;33.72;99449.59;4992811;28;858;-59
2022/08/31 08:21:54;;;;;;;;;;;;;;;33.84;33.15;99443.50;4991966;28;1398;-59
2022/08/31 08:24:20;;;;;;;;;;;;;;;34.03;33.06;99454.53;4992728;28;874;-59
2022/08/31 08:26:48;;;;;;;;;;;;;;;33.80;33.18;99454.59;4992637;28;1962;-60
2022/08/31 08:29:34;;;;;;;;;;;;;;;33.68;33.41;99450.56;4992668;28;779;-59
2022/08/31 08:32:00;;;;;;;;;;;;;;;33.87;33.45;99445.19;4992650;28;807;-59
2022/08/31 08:34:27;;;;;;;;;;;;;;;34.21;32.37;99432.56;4991237;28;1287;-59
2022/08/31 08:36:54;;;;;;;;;;;;;;;34.06;32.50;99436.19;4992628;28;889;-60
2022/08/31 08:39:21;;;;;;;;;;;;;;;33.84;32.89;99446.34;4992530;28;816;-60
2022/08/31 08:41:49;;;;;;;;;;;;;;;33.76;33.34;99443.50;4992531;28;846;-60
2022/08/31 08:44:49;;;;;;;;;;;;;;;34.30;32.41;99448.38;4992412;28;803;-59
2022/08/31 08:47:21;;;;;;;;;;;;;;;34.27;31.26;99450.31;4992376;28;819;-59
2022/08/31 08:49:49;;;;;;;;;;;;;;;34.54;30.84;99449.81;4992389;28;870;-59
2022/08/31 08:52:25;;;;;;;;;;;;;;;34.55;31.11;99448.50;4991333;28;1224;-60
2022/08/31 09:07:29;;;;;;;;;;;;;;;33.13;31.85;99428.94;4992250;28;668;-59
2022/08/31 09:09:56;;;;;;;;;;;;;;;33.51;31.31;99431.06;4992151;28;983;-59
2022/08/31 09:12:25;;;;;;;;;;;;;;;33.66;31.35;99421.72;4992181;28;784;-59
2022/08/31 09:15:07;;;;;;;;;;;;;;;33.72;31.61;99420.19;4992364;28;870;-59
2022/08/31 09:17:39;;;;;;;;;;;;;;;33.66;32.28;99416.00;4992135;28;823;-59
2022/08/31 09:20:11;;;;;;;;;;;;;;;33.39;30.67;99401.25;4992128;28;822;-59
2022/08/31 09:23:13;;;;;;;;;;;;;;;33.46;31.25;99409.13;4991804;28;1207;-59
2022/08/31 09:25:50;;;;;;;;;;;;;;;33.44;30.63;99406.81;4992028;28;1981;-59
2022/08/31 09:28:18;;;;;;;;;;;;;;;33.36;30.43;99397.44;4991887;28;854;-59
2022/08/31 09:30:48;;;;;;;;;;;;;;;33.49;31.24;99393.63;4991066;28;1279;-59
2022/08/31 09:33:28;;;;;;;;;;;;;;;33.25;31.38;99400.69;4994859;28;923;-59
2022/08/31 09:36:13;;;;;;;;;;;;;;;33.45;30.94;99399.72;4996144;28;862;-59
2022/08/31 09:38:45;;;;;;;;;;;;;;;33.19;31.03;99392.28;4995708;28;890;-59
2022/08/31 09:41:30;;;;;;;;;;;;;;;33.27;31.39;99400.91;4995791;28;886;-59
2022/08/31 09:44:15;;;;;;;;;;;;;;;33.31;30.61;99398.41;4995715;28;846;-59
2022/08/31 09:59:11;;;;;;;;;;;;;;;33.97;30.90;99388.81;4995413;28;642;-60
2022/08/31 10:01:59;;;;;;;;;;;;;;;33.88;30.88;99388.63;4995322;28;929;-59
2022/08/31 10:04:28;;;;;;;;;;;;;;;33.54;31.09;99387.72;4995274;28;1132;-60
2022/08/31 10:07:05;;;;;;;;;;;;;;;33.32;31.02;99394.97;4993934;28;1887;-60
2022/08/31 10:09:51;;;;;;;;;;;;;;;33.49;31.48;99385.78;4995132;28;807;-60
2022/08/31 10:12:21;;;;;;;;;;;;;;;33.67;31.36;99386.00;4994829;28;1181;-60
2022/08/31 10:14:49;;;;;;;;;;;;;;;33.80;31.20;99373.56;4995063;28;811;-60
2022/08/31 10:17:24;;;;;;;;;;;;;;;34.17;30.27;99372.72;4995111;28;851;-60
2022/08/31 10:20:00;;;;;;;;;;;;;;;34.24;28.64;99365.41;4993722;28;1310;-60
2022/08/31 10:22:32;;;;;;;;;;;;;;;34.03;27.75;99362.78;4994691;28;1224;-60
2022/08/31 10:25:03;;;;;;;;;;;;;;;34.23;27.83;99363.91;4994870;28;1976;-60
2022/08/31 10:27:39;;;;;;;;;;;;;;;34.11;27.59;99360.66;4993545;28;1224;-60
2022/08/31 10:30:17;;;;;;;;;;;;;;;34.09;28.22;99369.06;4994895;28;851;-60
2022/08/31 10:32:51;;;;;;;;;;;;;;;34.38;28.26;99371.69;4994929;28;815;-60
2022/08/31 10:35:23;;;;;;;;;;;;;;;34.21;27.83;99363.72;4994776;28;869;-60
2022/08/31 10:41:19;;;;;;;;;;;;;;;33.67;28.12;99352.41;4994691;28;602;-60
2022/08/31 10:44:08;;;;;;;;;;;;;;;33.91;28.12;99351.00;4993993;28;812;-60
2022/08/31 10:46:34;;;;;;;;;;;;;;;34.38;27.81;99336.50;4994361;28;1962;-59
2022/08/31 10:49:10;;;;;;;;;;;;;;;34.48;27.47;99335.31;4994707;28;816;-60
2022/08/31 10:52:09;;;;;;;;;;;;;;;34.66;27.39;99336.19;4994645;28;893;-60
2022/08/31 10:54:42;;;;;;;;;;;;;;;34.76;27.32;99331.31;4961958;28;1095;-60
2022/08/31 10:57:22;;;;;;;;;;;;;;;34.84;27.12;99319.78;4994618;28;811;-60
2022/08/31 11:03:13;;;;;;;;;;;;;;;34.72;27.39;99330.97;4934414;29;1276;-60
2022/08/31 11:05:46;;;;;;;;;;;;;;;34.60;27.38;99329.88;4934171;29;1942;-60
2022/08/31 11:08:27;;;;;;;;;;;;;;;34.49;27.52;99327.44;4918195;29;1377;-60
2022/08/31 11:10:54;;;;;;;;;;;;;;;34.40;27.24;99322.31;4934057;29;1117;-60
2022/08/31 11:13:46;;;;;;;;;;;;;;;34.39;27.23;99317.94;4934118;29;824;-60
2022/08/31 11:16:31;;;;;;;;;;;;;;;34.38;26.60;99310.69;4934229;29;859;-61
2022/08/31 11:19:16;;;;;;;;;;;;;;;34.62;26.70;99318.56;4934074;29;930;-60
2022/08/31 11:21:49;;;;;;;;;;;;;;;34.40;26.91;99320.25;4933916;29;1316;-60
2022/08/31 11:24:35;;;;;;;;;;;;;;;34.27;26.91;99318.41;4917976;29;1305;-61
2022/08/31 11:27:22;;;;;;;;;;;;;;;35.00;26.40;99320.44;4933809;29;1903;-61
2022/08/31 11:30:06;;;;;;;;;;;;;;;35.73;25.30;99310.81;4933629;29;1453;-60
2022/08/31 11:32:39;;;;;;;;;;;;;;;36.10;25.13;99314.56;4917998;29;1297;-60
2022/08/31 11:35:35;;;;;;;;;;;;;;;35.70;24.94;99306.22;4933748;29;855;-60
2022/08/31 11:41:09;;;;;;;;;;;;;;;35.66;24.66;99288.66;4973777;28;1141;-60
2022/08/31 11:43:49;;;;;;;;;;;;;;;35.90;23.67;99298.53;4974076;28;843;-60
2022/08/31 11:46:25;;;;;;;;;;;;;;;35.63;24.93;99293.44;4973980;28;2001;-61
2022/08/31 11:48:55;;;;;;;;;;;;;;;36.17;24.94;99295.72;4972701;28;1240;-61
2022/08/31 11:51:32;;;;;;;;;;;;;;;36.23;24.77;99292.56;4973998;28;913;-61
2022/08/31 11:54:14;;;;;;;;;;;;;;;36.49;24.97;99286.06;4974112;28;926;-61
2022/08/31 11:56:46;;;;;;;;;;;;;;;37.10;24.21;99283.63;4972904;28;838;-61
2022/08/31 12:02:21;;;;;;;;;;;;;;;36.98;23.27;99289.19;4973592;28;1120;-61
2022/08/31 12:05:01;;;;;;;;;;;;;;;37.65;22.86;99270.53;4973825;28;867;-61
2022/08/31 12:07:34;;;;;;;;;;;;;;;37.46;23.03;99277.00;4973650;28;862;-61
2022/08/31 12:10:19;;;;;;;;;;;;;;;36.14;23.53;99283.28;4973872;28;1012;-61
2022/08/31 12:12:54;;;;;;;;;;;;;;;34.63;25.12;99277.09;4973525;28;823;-62
2022/08/31 12:15:24;;;;;;;;;;;;;;;33.81;26.76;99266.19;4973548;28;819;-63
2022/08/31 12:18:10;;;;;;;;;;;;;;;33.36;27.32;99257.88;4972145;28;1394;-62
2022/08/31 12:23:49;;;;;;;;;;;;;;;37.12;23.70;99249.97;4988898;28;1431;-62
2022/08/31 12:26:25;;;;;;;;;;;;;;;36.82;22.96;99254.13;4992629;28;1910;-62
2022/08/31 12:28:52;;;;;;;;;;;;;;;34.94;24.00;99254.63;4992588;28;889;-62
2022/08/31 12:31:20;;;;;;;;;;;;;;;34.08;25.15;99252.13;4992592;28;831;-62
2022/08/31 12:33:56;;;;;;;;;;;;;;;33.64;26.26;99247.53;4992641;28;854;-62
2022/08/31 12:36:28;;;;;;;;;;;;;;;35.06;25.48;99248.41;4992537;28;867;-62
2022/08/31 12:39:11;;;;;;;;;;;;;;;36.21;24.18;99238.53;4992500;28;851;-63
2022/08/31 12:41:41;;;;;;;;;;;;;;;35.89;24.70;99243.16;4991187;28;1247;-62
2022/08/31 12:44:08;;;;;;;;;;;;;;;34.94;25.53;99236.66;4992385;28;822;-62
2022/08/31 12:46:52;;;;;;;;;;;;;;;34.23;26.43;99239.84;4992395;28;1882;-62
2022/08/31 12:49:28;;;;;;;;;;;;;;;34.59;26.23;99230.81;4991062;28;1494;-62
2022/08/31 12:52:13;;;;;;;;;;;;;;;34.79;26.18;99231.81;4991059;28;1501;-62
2022/08/31 12:54:46;;;;;;;;;;;;;;;35.01;26.29;99232.94;4991002;28;887;-63
2022/08/31 12:57:36;;;;;;;;;;;;;;;36.53;25.65;99230.94;4991011;28;1395;-62
2022/08/31 13:00:16;;;;;;;;;;;;;;;37.77;23.39;99225.31;4991254;28;962;-62
2022/08/31 13:02:45;;;;;;;;;;;;;;;38.57;23.27;99216.59;4992147;28;951;-63
2022/08/31 13:05:17;;;;;;;;;;;;;;;38.90;24.63;99227.53;4992134;28;1953;-62
2022/08/31 13:07:44;;;;;;;;;;;;;;;39.50;25.37;99229.44;4990554;28;1040;-62
2022/08/31 13:10:15;;;;;;;;;;;;;;;39.54;25.75;99223.16;4992237;28;1029;-62
2022/08/31 13:12:53;;;;;;;;;;;;;;;39.50;24.15;99223.66;4992109;28;819;-62
2022/08/31 13:15:25;;;;;;;;;;;;;;;39.29;24.44;99221.53;4992191;28;894;-62
2022/08/31 13:17:52;;;;;;;;;;;;;;;38.49;27.93;99213.16;4992070;28;886;-61
2022/08/31 13:20:20;;;;;;;;;;;;;;;36.51;31.49;99207.75;4992104;28;894;-61
2022/08/31 13:22:55;;;;;;;;;;;;;;;35.25;32.95;99213.41;4991753;28;1251;-63
2022/08/31 13:25:36;;;;;;;;;;;;;;;35.40;33.18;99207.50;4990683;28;1891;-62
2022/08/31 13:28:11;;;;;;;;;;;;;;;35.55;32.16;99206.56;4992377;28;858;-63
2022/08/31 13:30:38;;;;;;;;;;;;;;;34.36;34.36;99200.16;4991937;28;835;-62
2022/08/31 13:33:21;;;;;;;;;;;;;;;33.25;36.70;99194.56;4992032;28;850;-63
2022/08/31 13:35:56;;;;;;;;;;;;;;;32.41;38.61;99209.59;4991973;28;843;-62
2022/08/31 13:44:43;;;;;;;;;;;;;;;34.76;34.74;99190.69;4991901;28;606;-62
2022/08/31 13:47:19;;;;;;;;;;;;;;;34.97;34.07;99193.19;4991777;28;1955;-62
2022/08/31 13:50:12;;;;;;;;;;;;;;;35.12;33.86;99202.97;4991988;28;827;-62
2022/08/31 13:52:48;;;;;;;;;;;;;;;35.27;32.85;99190.59;4991848;28;1065;-62
2022/08/31 13:55:28;;;;;;;;;;;;;;;35.25;31.41;99204.78;4991705;28;871;-63
2022/08/31 13:58:01;;;;;;;;;;;;;;;35.41;32.01;99188.91;4991718;28;874;-62
2022/08/31 14:00:28;;;;;;;;;;;;;;;35.33;32.72;99205.47;4991729;28;890;-62
2022/08/31 14:02:57;;;;;;;;;;;;;;;35.19;32.88;99199.31;4990441;28;1208;-62
2022/08/31 14:05:30;;;;;;;;;;;;;;;35.02;33.17;99197.16;4991588;28;1945;-63
2022/08/31 14:08:01;;;;;;;;;;;;;;;34.62;33.50;99194.44;4990500;28;1271;-63
2022/08/31 14:10:36;;;;;;;;;;;;;;;34.16;34.37;99184.84;4990348;28;1235;-63
2022/08/31 14:22:31;;;;;;;;;;;;;;;32.98;34.52;99194.19;4995042;28;1263;-63
2022/08/31 14:24:59;;;;;;;;;;;;;;;32.96;34.60;99195.50;4994918;28;1970;-63
2022/08/31 14:27:27;;;;;;;;;;;;;;;32.69;35.05;99205.81;4993575;28;1406;-62
2022/08/31 14:29:54;;;;;;;;;;;;;;;32.39;36.69;99207.34;4994802;28;906;-62
2022/08/31 14:32:21;;;;;;;;;;;;;;;32.25;37.34;99218.16;4994839;28;854;-62
2022/08/31 14:34:48;;;;;;;;;;;;;;;32.51;37.03;99210.56;4994734;28;870;-63
2022/08/31 14:37:21;;;;;;;;;;;;;;;32.69;36.69;99215.19;4993504;28;1299;-63
2022/08/31 14:40:07;;;;;;;;;;;;;;;33.02;36.63;99221.09;4993979;28;1219;-63
2022/08/31 14:42:37;;;;;;;;;;;;;;;33.21;36.35;99217.84;4993405;28;1204;-63
2022/08/31 14:45:08;;;;;;;;;;;;;;;33.17;36.51;99219.56;4993431;28;1944;-62
2022/08/31 14:47:41;;;;;;;;;;;;;;;32.99;36.29;99219.38;4993235;28;1247;-62
2022/08/31 14:50:10;;;;;;;;;;;;;;;32.70;36.74;99228.16;4994494;28;1033;-62
2022/08/31 14:52:43;;;;;;;;;;;;;;;32.40;37.06;99237.44;4994416;28;877;-62
2022/08/31 14:55:11;;;;;;;;;;;;;;;31.97;37.87;99230.44;4994425;28;869;-63
2022/08/31 14:57:41;;;;;;;;;;;;;;;31.52;38.56;99234.66;4994264;28;846;-62
2022/08/31 15:00:09;;;;;;;;;;;;;;;31.08;39.48;99232.44;4993325;28;847;-63
2022/08/31 15:02:36;;;;;;;;;;;;;;;30.74;40.29;99233.28;4994354;28;850;-62
2022/08/31 15:05:05;;;;;;;;;;;;;;;30.48;41.57;99233.44;4994194;28;1886;-62
2022/08/31 15:07:34;;;;;;;;;;;;;;;30.28;43.53;99240.63;4994470;28;799;-62
2022/08/31 15:10:01;;;;;;;;;;;;;;;29.97;44.75;99237.44;4994179;28;889;-61
2022/08/31 15:12:28;;;;;;;;;;;;;;;29.83;45.21;99245.25;4994167;28;803;-63
2022/08/31 15:14:58;;;;;;;;;;;;;;;29.66;45.72;99242.72;4994073;28;795;-63
2022/08/31 15:17:27;;;;;;;;;;;;;;;29.37;46.43;99241.75;4992795;28;906;-62
2022/08/31 15:19:54;;;;;;;;;;;;;;;29.12;46.47;99244.03;4993972;28;1109;-62
2022/08/31 15:22:21;;;;;;;;;;;;;;;28.96;46.69;99247.94;4992373;28;1422;-61
2022/08/31 15:24:49;;;;;;;;;;;;;;;28.84;46.71;99250.19;4993879;28;862;-62
2022/08/31 15:27:16;;;;;;;;;;;;;;;28.69;46.76;99251.47;4993714;28;1997;-62
2022/08/31 15:29:44;;;;;;;;;;;;;;;28.58;45.81;99251.66;4993621;28;858;-61
2022/08/31 15:32:15;;;;;;;;;;;;;;;28.34;44.53;99254.63;4993714;28;857;-61
2022/08/31 15:34:56;;;;;;;;;;;;;;;28.09;44.95;99258.31;4993617;28;910;-61
2022/08/31 15:37:28;;;;;;;;;;;;;;;27.94;45.38;99257.25;4993551;28;1242;-61
2022/08/31 15:40:05;;;;;;;;;;;;;;;27.77;46.04;99258.19;4993593;28;834;-61
2022/08/31 15:42:38;;;;;;;;;;;;;;;27.65;46.36;99259.63;4993556;28;823;-62
2022/08/31 15:45:07;;;;;;;;;;;;;;;27.57;46.71;99272.88;4993417;28;1890;-61
2022/08/31 15:50:22;;;;;;;;;;;;;;;27.43;48.10;99258.59;4993726;28;634;-61
2022/08/31 15:52:49;;;;;;;;;;;;;;;27.36;48.69;99249.94;4993323;28;835;-62
2022/08/31 15:55:20;;;;;;;;;;;;;;;27.29;48.75;99246.38;4993477;28;795;-61
2022/08/31 15:57:47;;;;;;;;;;;;;;;27.22;49.31;99251.88;4993254;28;863;-62
2022/08/31 16:00:14;;;;;;;;;;;;;;;27.17;49.56;99250.59;4991882;28;1343;-61
2022/08/31 16:02:41;;;;;;;;;;;;;;;27.08;50.28;99248.88;4991759;28;1308;-62
2022/08/31 16:05:09;;;;;;;;;;;;;;;26.98;51.03;99249.75;4992994;28;1994;-61
2022/08/31 16:07:35;;;;;;;;;;;;;;;26.90;51.42;99263.75;4993094;28;854;-61
2022/08/31 16:10:05;;;;;;;;;;;;;;;26.75;52.32;99272.63;4992994;28;882;-61
2022/08/31 16:12:32;;;;;;;;;;;;;;;26.70;52.22;99269.88;4993051;28;886;-61
2022/08/31 16:14:59;;;;;;;;;;;;;;;26.62;52.34;99281.00;4992865;28;858;-61